Time;durP1;ratioP1;P1;durP2;ratioP2;P2;SDS_P1;SDS_P2;PMS_P1;PMS_P2;Temp;Humidity;BMP_temperature;BMP_pressure;BME280_temperature;BME280_humidity;BME280_pressure;Samples;Min_cycle;Max_cycle;Signal;HPM_P1;HPM_P2
2022/05/18 00:00:27;;;;;;;8.68;7.28;;;;;;;15.39;100.00;101160.50;6262932;28;20513;-84
2022/05/18 00:03:33;;;;;;;9.82;7.32;;;;;;;15.37;100.00;101156.41;6235325;28;20045;-84
2022/05/18 00:06:35;;;;;;;9.98;8.00;;;;;;;15.34;100.00;101165.31;6271073;28;20100;-84
2022/05/18 00:09:37;;;;;;;9.48;8.40;;;;;;;15.34;100.00;101167.13;6262609;28;20045;-84
2022/05/18 00:12:47;;;;;;;11.40;7.95;;;;;;;15.34;100.00;101162.72;6264487;28;20051;-84
2022/05/18 00:15:49;;;;;;;11.45;8.75;;;;;;;15.37;100.00;101161.63;6250691;28;20565;-84
2022/05/18 00:18:52;;;;;;;10.52;8.25;;;;;;;15.37;100.00;101174.66;6254117;28;20048;-83
2022/05/18 00:21:54;;;;;;;13.32;9.52;;;;;;;15.36;100.00;101179.06;6247786;28;20048;-83
2022/05/18 00:24:58;;;;;;;11.88;9.10;;;;;;;15.39;100.00;101180.56;6259205;28;20103;-83
2022/05/18 00:28:01;;;;;;;13.00;9.88;;;;;;;15.36;100.00;101181.66;6255562;28;20409;-83
2022/05/18 00:31:03;;;;;;;11.73;9.38;;;;;;;15.34;100.00;101196.63;6259065;28;20486;-83
2022/05/18 00:34:05;;;;;;;12.75;9.60;;;;;;;15.32;100.00;101193.31;6255526;28;20045;-83
2022/05/18 00:37:07;;;;;;;12.20;9.50;;;;;;;15.28;100.00;101190.16;6264299;28;20037;-83
2022/05/18 00:40:12;;;;;;;9.77;8.73;;;;;;;15.21;100.00;101186.47;6261518;28;20037;-84
2022/05/18 00:43:29;;;;;;;12.70;9.73;;;;;;;15.18;100.00;101188.50;6256261;28;20144;-83
2022/05/18 00:46:31;;;;;;;11.23;9.57;;;;;;;15.12;100.00;101182.03;6261190;28;20080;-83
2022/05/18 00:49:33;;;;;;;10.70;8.48;;;;;;;15.12;100.00;101187.25;6252662;28;20040;-83
2022/05/18 00:52:40;;;;;;;12.27;9.13;;;;;;;15.12;100.00;101187.25;6256109;28;20044;-84
2022/05/18 00:55:45;;;;;;;12.05;8.55;;;;;;;15.11;100.00;101188.22;6262037;28;20118;-83
2022/05/18 00:59:09;;;;;;;10.80;7.38;;;;;;;15.10;100.00;101191.78;6260501;28;20049;-83
2022/05/18 01:02:12;;;;;;;11.65;8.45;;;;;;;15.09;100.00;101190.13;6259790;28;20044;-83
2022/05/18 01:05:22;;;;;;;9.65;7.80;;;;;;;15.09;100.00;101190.13;6258327;28;20052;-83
2022/05/18 01:08:45;;;;;;;10.98;8.40;;;;;;;15.06;100.00;101191.22;6255966;28;20505;-83
2022/05/18 01:11:46;;;;;;;10.95;8.30;;;;;;;15.06;100.00;101187.81;6258866;28;20422;-84
2022/05/18 01:15:07;;;;;;;9.52;7.68;;;;;;;15.09;100.00;101182.31;6248352;28;20566;-83
2022/05/18 01:18:12;;;;;;;10.00;7.32;;;;;;;15.13;100.00;101183.72;6254168;28;20045;-83
2022/05/18 01:21:14;;;;;;;12.50;7.90;;;;;;;15.15;100.00;101180.94;6259755;28;20029;-84
2022/05/18 01:24:28;;;;;;;11.55;7.32;;;;;;;15.18;100.00;101185.88;6256878;28;20524;-83
2022/05/18 01:27:31;;;;;;;12.95;6.68;;;;;;;15.19;100.00;101175.31;6260220;28;20060;-83
2022/05/18 01:30:36;;;;;;;11.75;6.85;;;;;;;15.19;100.00;101174.50;6262559;28;20127;-84
2022/05/18 01:33:38;;;;;;;9.73;6.10;;;;;;;15.20;100.00;101178.75;6260144;28;20131;-84
2022/05/18 01:36:40;;;;;;;8.55;6.63;;;;;;;15.18;100.00;101178.91;6251996;28;20052;-83
2022/05/18 01:39:59;;;;;;;9.45;6.45;;;;;;;15.19;100.00;101174.50;6251275;28;20044;-84
2022/05/18 01:43:12;;;;;;;9.10;6.53;;;;;;;15.18;100.00;101175.44;6245124;28;20041;-83
2022/05/18 01:46:16;;;;;;;12.32;6.45;;;;;;;15.18;100.00;101178.06;6249920;28;20036;-84
2022/05/18 01:49:19;;;;;;;7.57;5.50;;;;;;;15.15;100.00;101179.16;6250773;28;20044;-84
2022/05/18 01:52:21;;;;;;;8.55;5.57;;;;;;;15.12;100.00;101176.81;6257385;28;20045;-84
2022/05/18 01:55:24;;;;;;;8.57;5.28;;;;;;;15.11;100.00;101179.59;6262714;28;20037;-84
2022/05/18 01:58:26;;;;;;;8.73;5.63;;;;;;;15.11;100.00;101175.19;6254431;28;20110;-83
2022/05/18 02:01:29;;;;;;;9.80;6.15;;;;;;;15.08;100.00;101178.06;6245017;28;20053;-83
2022/05/18 02:04:32;;;;;;;7.55;5.85;;;;;;;15.05;100.00;101179.16;6244017;28;20596;-84
2022/05/18 02:07:33;;;;;;;11.48;6.43;;;;;;;15.06;100.00;101182.59;6260957;28;20402;-84
2022/05/18 02:10:36;;;;;;;7.35;5.90;;;;;;;15.05;100.00;101171.34;6255808;28;20441;-83
2022/05/18 02:13:37;;;;;;;8.63;5.55;;;;;;;15.07;100.00;101171.19;6249500;28;20048;-83
2022/05/18 02:16:40;;;;;;;8.35;5.30;;;;;;;15.10;100.00;101176.13;6254042;28;20029;-84
2022/05/18 02:19:42;;;;;;;7.55;5.60;;;;;;;15.12;100.00;101183.81;6243507;28;20282;-83
2022/05/18 02:22:44;;;;;;;8.10;6.15;;;;;;;15.11;100.00;101195.22;6257594;28;20763;-83
2022/05/18 02:25:46;;;;;;;11.48;7.00;;;;;;;15.12;100.00;101197.69;6261437;28;20132;-83
2022/05/18 02:28:48;;;;;;;9.48;6.40;;;;;;;15.11;100.00;101197.84;6250602;28;20545;-84
2022/05/18 02:31:54;;;;;;;8.55;6.15;;;;;;;15.11;100.00;101201.25;6256185;28;20109;-83
2022/05/18 02:34:57;;;;;;;10.07;6.30;;;;;;;15.08;100.00;101202.34;6259606;28;20043;-83
2022/05/18 02:37:58;;;;;;;9.55;6.78;;;;;;;15.10;100.00;101206.59;6260485;28;20053;-84
2022/05/18 02:41:01;;;;;;;7.50;6.72;;;;;;;15.08;100.00;101209.34;6239783;28;20045;-83
2022/05/18 02:44:02;;;;;;;11.98;7.72;;;;;;;15.05;100.00;101201.78;6246895;28;20048;-83
2022/05/18 02:47:05;;;;;;;10.15;8.35;;;;;;;15.05;100.00;101196.56;6243776;28;20073;-84
2022/05/18 02:50:08;;;;;;;11.38;8.98;;;;;;;15.02;100.00;101191.63;6259544;28;20060;-84
2022/05/18 02:53:10;;;;;;;13.32;10.63;;;;;;;15.05;100.00;101204.38;6251853;28;20569;-84
2022/05/18 02:56:16;;;;;;;13.85;10.55;;;;;;;15.05;100.00;101194.81;6258280;28;20565;-84
2022/05/18 02:59:19;;;;;;;13.10;11.13;;;;;;;15.10;100.00;101201.38;6254585;28;20045;-84
2022/05/18 03:02:21;;;;;;;13.70;11.77;;;;;;;15.12;100.00;101202.91;6253420;28;20414;-83
2022/05/18 03:05:23;;;;;;;15.80;12.02;;;;;;;15.16;100.00;101204.28;6259759;28;20053;-83
2022/05/18 03:08:25;;;;;;;16.52;12.50;;;;;;;15.19;100.00;101200.59;6238246;28;20041;-84
2022/05/18 03:11:27;;;;;;;15.05;12.88;;;;;;;15.20;100.00;101197.00;6242874;28;20088;-84
2022/05/18 03:14:29;;;;;;;16.45;12.80;;;;;;;15.19;100.00;101196.19;6241352;28;20041;-84
2022/05/18 03:17:31;;;;;;;17.45;13.45;;;;;;;15.20;100.00;101197.00;6257582;28;20056;-84
2022/05/18 03:23:54;;;;;;;;;;;;;;;15.18;100.00;101207.59;6239899;28;20171;-83
2022/05/18 03:26:56;;;;;;;16.73;13.02;;;;;;;15.20;100.00;101207.44;6264272;28;19924;-83
2022/05/18 03:29:58;;;;;;;16.27;13.55;;;;;;;15.17;100.00;101216.34;6258493;28;20413;-83
2022/05/18 03:32:59;;;;;;;19.65;14.63;;;;;;;15.17;100.00;101226.78;6259997;28;20046;-83
2022/05/18 03:36:02;;;;;;;18.25;14.35;;;;;;;15.19;100.00;101222.28;6252561;28;20428;-84
2022/05/18 03:39:04;;;;;;;17.90;13.88;;;;;;;15.17;100.00;101224.19;6263656;28;20041;-84
2022/05/18 03:42:08;;;;;;;16.85;13.95;;;;;;;15.18;100.00;101225.84;6258741;28;20048;-84
2022/05/18 03:45:10;;;;;;;19.52;13.93;;;;;;;15.18;100.00;101225.84;6263990;28;20040;-84
2022/05/18 03:48:14;;;;;;;18.88;15.32;;;;;;;15.19;100.00;101217.06;6261909;28;20046;-83
2022/05/18 03:51:16;;;;;;;16.23;13.73;;;;;;;15.19;100.00;101224.88;6257088;28;20033;-84
2022/05/18 03:54:18;;;;;;;16.23;13.45;;;;;;;15.22;100.00;101223.78;6263410;28;20044;-84
2022/05/18 03:57:20;;;;;;;16.10;13.70;;;;;;;15.27;100.00;101219.81;6245806;28;20037;-84
2022/05/18 04:00:23;;;;;;;17.85;13.68;;;;;;;15.32;100.00;101226.41;6239860;28;20053;-84
2022/05/18 04:03:27;;;;;;;14.95;12.38;;;;;;;15.32;100.00;101227.22;6263498;28;20505;-84
2022/05/18 04:06:28;;;;;;;14.27;12.45;;;;;;;15.32;100.00;101231.63;6261175;28;20041;-84
2022/05/18 04:09:30;;;;;;;16.73;12.88;;;;;;;15.29;100.00;101227.50;6256623;28;20079;-84
2022/05/18 04:12:32;;;;;;;17.05;12.80;;;;;;;15.36;100.00;101231.22;6258719;28;20045;-84
2022/05/18 04:15:34;;;;;;;15.40;12.77;;;;;;;15.39;100.00;101232.75;6242105;28;20037;-84
2022/05/18 04:18:36;;;;;;;17.65;13.35;;;;;;;15.42;100.00;101230.69;6258774;28;20060;-84
2022/05/18 04:21:38;;;;;;;16.85;13.15;;;;;;;15.48;100.00;101234.56;6262325;28;20490;-84
2022/05/18 04:24:39;;;;;;;19.70;13.85;;;;;;;15.54;100.00;101233.19;6259167;28;20052;-84
2022/05/18 04:27:42;;;;;;;15.38;12.50;;;;;;;15.58;100.00;101234.56;6251293;28;20046;-84
2022/05/18 04:30:46;;;;;;;14.77;12.63;;;;;;;15.59;100.00;101236.19;6230813;28;20040;-84
2022/05/18 04:33:48;;;;;;;18.13;12.25;;;;;;;15.60;100.00;101245.66;6243984;28;20049;-84
2022/05/18 04:36:51;;;;;;;14.90;11.90;;;;;;;15.59;100.00;101244.84;6272696;28;20690;-84
2022/05/18 04:39:53;;;;;;;16.52;12.35;;;;;;;15.61;100.00;101244.72;6252542;28;20041;-84
2022/05/18 04:42:56;;;;;;;12.93;11.55;;;;;;;15.63;100.00;101242.81;6263768;28;20787;-84
2022/05/18 04:45:58;;;;;;;15.32;13.55;;;;;;;15.71;100.00;101235.97;6269477;28;20037;-84
2022/05/18 04:49:01;;;;;;;16.83;12.40;;;;;;;15.81;100.00;101237.75;6249271;28;20090;-84
2022/05/18 04:52:03;;;;;;;20.55;12.55;;;;;;;15.88;100.00;101244.91;6260534;28;20049;-84
2022/05/18 04:55:06;;;;;;;17.10;13.20;;;;;;;15.92;100.00;101250.66;6255348;28;20041;-84
2022/05/18 04:58:08;;;;;;;15.05;12.65;;;;;;;15.93;100.00;101247.91;6264175;28;20036;-84
2022/05/18 05:01:10;;;;;;;17.23;13.18;;;;;;;15.97;100.00;101253.66;6272889;28;20044;-84
2022/05/18 05:04:14;;;;;;;17.30;13.02;;;;;;;15.97;100.00;101247.63;6251355;28;20049;-84
2022/05/18 05:07:16;;;;;;;15.57;12.05;;;;;;;15.93;100.00;101250.53;6265588;28;20048;-84
2022/05/18 05:10:18;;;;;;;16.60;12.05;;;;;;;15.88;100.00;101255.34;6265489;28;20390;-84
2022/05/18 05:13:20;;;;;;;17.50;12.65;;;;;;;15.85;100.00;101257.38;6255252;28;20422;-84
2022/05/18 05:16:22;;;;;;;15.30;12.07;;;;;;;15.87;100.00;101258.06;6257437;28;20829;-84
2022/05/18 05:19:24;;;;;;;15.68;12.05;;;;;;;15.92;100.00;101258.47;6269606;28;20037;-84
2022/05/18 05:22:26;;;;;;;14.35;11.90;;;;;;;16.01;100.00;101262.06;6237285;28;20090;-84
2022/05/18 05:25:29;;;;;;;19.45;12.32;;;;;;;16.12;100.00;101262.75;6237611;28;20055;-84
2022/05/18 05:28:31;;;;;;;16.98;12.90;;;;;;;16.29;100.00;101252.53;6231085;28;20036;-84
2022/05/18 05:31:33;;;;;;;15.95;12.38;;;;;;;16.51;100.00;101259.22;6252351;28;20045;-84
2022/05/18 05:34:35;;;;;;;14.77;12.30;;;;;;;16.75;100.00;101259.56;6268090;28;20048;-84
2022/05/18 05:37:37;;;;;;;13.10;11.40;;;;;;;17.09;100.00;101252.97;6250453;28;20548;-84
2022/05/18 05:40:39;;;;;;;15.85;11.90;;;;;;;17.37;100.00;101259.84;6257055;28;20048;-84
2022/05/18 05:43:41;;;;;;;14.82;11.88;;;;;;;17.65;100.00;101267.63;6260096;28;20565;-84
2022/05/18 05:46:45;;;;;;;14.55;11.93;;;;;;;17.83;100.00;101255.38;6263170;28;20063;-84
2022/05/18 05:49:47;;;;;;;12.25;10.85;;;;;;;17.92;100.00;101255.47;6256611;28;20033;-84
2022/05/18 05:52:49;;;;;;;13.95;10.68;;;;;;;17.97;100.00;101255.84;6260499;28;20047;-84
2022/05/18 05:55:53;;;;;;;14.52;10.68;;;;;;;17.96;100.00;101255.03;6249648;28;20064;-84
2022/05/18 05:58:56;;;;;;;15.57;10.20;;;;;;;17.87;100.00;101258.53;6273559;28;20049;-84
2022/05/18 06:01:59;;;;;;;12.65;9.73;;;;;;;17.76;100.00;101259.56;6262794;28;20040;-84
2022/05/18 06:05:03;;;;;;;14.57;9.82;;;;;;;17.63;100.00;101256.50;6248517;28;20060;-84
2022/05/18 06:08:05;;;;;;;12.75;10.95;;;;;;;17.49;100.00;101260.47;6266809;28;20043;-84
2022/05/18 06:11:09;;;;;;;12.45;9.85;;;;;;;17.46;100.00;101254.69;6266892;28;20042;-84
2022/05/18 06:14:11;;;;;;;12.68;9.77;;;;;;;17.44;100.00;101262.69;6259080;28;20703;-84
2022/05/18 06:17:13;;;;;;;12.57;9.95;;;;;;;17.60;100.00;101256.78;6260596;28;20127;-84
2022/05/18 06:20:15;;;;;;;13.35;10.35;;;;;;;17.89;100.00;101250.50;6253400;28;20793;-84
2022/05/18 06:23:18;;;;;;;10.88;9.55;;;;;;;18.35;100.00;101256.44;6258019;28;20828;-84
2022/05/18 06:26:20;;;;;;;13.25;9.98;;;;;;;18.84;100.00;101256.75;6264724;28;20048;-84
2022/05/18 06:29:24;;;;;;;14.18;9.52;;;;;;;19.33;100.00;101265.59;6264038;28;20405;-84
2022/05/18 06:32:26;;;;;;;12.32;9.70;;;;;;;19.79;100.00;101267.84;6266147;28;20272;-84
2022/05/18 06:35:29;;;;;;;11.77;9.52;;;;;;;20.14;100.00;101264.03;6256335;28;20034;-84
2022/05/18 06:38:31;;;;;;;10.30;9.10;;;;;;;20.32;100.00;101255.16;6259340;28;20447;-84
2022/05/18 06:41:35;;;;;;;11.75;9.35;;;;;;;20.40;100.00;101265.66;6255614;28;20075;-84
2022/05/18 06:44:36;;;;;;;11.48;8.85;;;;;;;20.48;100.00;101264.81;6259864;28;20068;-84
2022/05/18 06:47:43;;;;;;;11.32;8.43;;;;;;;20.48;100.00;101263.00;6257629;28;20048;-84
2022/05/18 06:50:45;;;;;;;10.45;8.95;;;;;;;20.52;100.00;101277.47;6240772;28;20419;-84
2022/05/18 06:53:51;;;;;;;12.23;8.40;;;;;;;20.57;100.00;101269.94;6247623;28;20530;-84
2022/05/18 06:56:53;;;;;;;13.40;8.45;;;;;;;20.73;100.00;101274.31;6251767;28;20036;-84
2022/05/18 06:59:55;;;;;;;9.27;7.93;;;;;;;20.94;100.00;101263.19;6245587;28;20671;-84
2022/05/18 07:02:57;;;;;;;8.90;7.85;;;;;;;21.08;100.00;101278.28;6233597;28;20037;-84
2022/05/18 07:05:59;;;;;;;9.65;7.93;;;;;;;21.18;100.00;101278.06;6259516;28;20068;-84
2022/05/18 07:09:01;;;;;;;11.50;7.53;;;;;;;21.21;100.00;101280.34;6255869;28;20547;-84
2022/05/18 07:12:04;;;;;;;8.80;7.50;;;;;;;21.10;100.00;101275.50;6231450;28;20151;-84
2022/05/18 07:15:06;;;;;;;7.72;6.88;;;;;;;20.99;100.00;101281.97;6248494;28;20375;-84
2022/05/18 07:18:08;;;;;;;10.02;7.10;;;;;;;20.77;100.00;101275.63;6237677;28;20051;-84
2022/05/18 07:21:11;;;;;;;8.20;7.40;;;;;;;20.47;100.00;101268.44;6251248;28;20562;-84
2022/05/18 07:24:14;;;;;;;10.75;8.13;;;;;;;20.14;100.00;101264.03;6235018;28;20088;-84
2022/05/18 07:27:17;;;;;;;9.55;8.55;;;;;;;19.88;100.00;101269.47;6241465;28;20069;-84
2022/05/18 07:30:19;;;;;;;9.55;7.78;;;;;;;19.65;100.00;101273.69;6240998;28;20037;-84
2022/05/18 07:33:22;;;;;;;8.25;6.95;;;;;;;19.51;100.00;101262.03;6253092;28;20124;-84
2022/05/18 07:36:24;;;;;;;9.88;7.88;;;;;;;19.55;100.00;101269.44;6235354;28;20033;-84
2022/05/18 07:39:30;;;;;;;11.90;7.95;;;;;;;19.69;100.00;101265.34;6243482;28;20042;-84
2022/05/18 07:42:32;;;;;;;9.85;7.80;;;;;;;19.91;100.00;101269.16;6247201;28;20037;-84
2022/05/18 07:45:35;;;;;;;13.90;7.32;;;;;;;20.22;100.00;101269.31;6249655;28;20034;-84
2022/05/18 07:48:38;;;;;;;9.73;6.82;;;;;;;20.56;100.00;101259.56;6253300;28;20060;-84
2022/05/18 07:51:40;;;;;;;9.32;6.90;;;;;;;20.92;100.00;101267.00;6249687;28;20087;-85
2022/05/18 07:54:44;;;;;;;8.73;5.97;;;;;;;21.20;100.00;101270.00;6243777;28;20060;-85
2022/05/18 07:57:46;;;;;;;8.65;6.38;;;;;;;21.38;100.00;101275.00;6250800;28;20044;-85
2022/05/18 08:00:48;;;;;;;7.97;6.22;;;;;;;21.58;100.00;101263.03;6227685;28;20046;-85
2022/05/18 08:03:50;;;;;;;10.43;6.22;;;;;;;21.67;100.00;101272.53;6247053;28;20053;-85
2022/05/18 08:06:52;;;;;;;6.63;6.03;;;;;;;21.49;100.00;101272.03;6255567;28;20045;-85
2022/05/18 08:16:35;;;;;;;10.10;6.13;;;;;;;21.41;100.00;101269.41;6247319;28;20033;-85
2022/05/18 08:19:37;;;;;;;7.35;6.07;;;;;;;21.49;100.00;101264.94;6242872;28;20502;-85
2022/05/18 08:22:43;;;;;;;8.20;6.30;;;;;;;21.49;100.00;101269.38;6251535;28;20422;-84
2022/05/18 08:25:48;;;;;;;10.65;6.43;;;;;;;21.54;100.00;101267.06;6237220;28;20059;-85
2022/05/18 08:28:52;;;;;;;10.90;6.90;;;;;;;21.50;100.00;101258.66;6237632;28;20046;-85
2022/05/18 08:31:56;;;;;;;7.38;6.65;;;;;;;21.56;100.00;101269.50;6250877;28;20107;-85
2022/05/18 08:34:57;;;;;;;7.93;6.13;;;;;;;21.69;100.00;101277.66;6241448;28;20047;-85
2022/05/18 08:37:59;;;;;;;8.63;6.40;;;;;;;21.84;100.00;101272.44;6251827;28;20052;-85
2022/05/18 08:41:09;;;;;;;8.88;5.93;;;;;;;21.93;100.00;101274.78;6249015;28;20565;-85
2022/05/18 08:44:25;;;;;;;6.82;5.57;;;;;;;22.11;100.00;101268.38;6247083;28;20510;-85
2022/05/18 08:47:40;;;;;;;8.25;5.30;;;;;;;22.23;100.00;101263.53;6242193;28;20056;-85
2022/05/18 08:50:48;;;;;;;7.20;5.15;;;;;;;22.30;99.86;101257.34;6239761;28;20042;-84
2022/05/18 08:54:16;;;;;;;6.70;5.25;;;;;;;22.37;100.00;101257.47;6232099;28;20048;-85
2022/05/18 08:57:23;;;;;;;7.75;5.72;;;;;;;22.56;100.00;101262.22;6248085;28;20051;-85
2022/05/18 09:00:35;;;;;;;7.75;5.07;;;;;;;22.89;98.51;101258.38;6259201;28;20052;-85
2022/05/18 09:03:41;;;;;;;6.05;4.53;;;;;;;23.22;99.72;101256.94;6245932;28;20040;-85
2022/05/18 09:07:07;;;;;;;7.05;4.78;;;;;;;23.76;95.78;101255.69;6254730;28;20034;-85
2022/05/18 09:10:27;;;;;;;6.80;4.15;;;;;;;24.22;88.67;101252.59;6244554;28;20520;-85
2022/05/18 09:13:30;;;;;;;4.50;3.53;;;;;;;24.39;85.30;101253.06;6245367;28;20033;-85
2022/05/18 09:16:55;;;;;;;3.72;3.28;;;;;;;24.38;83.12;101245.34;6250229;28;20562;-85
2022/05/18 09:20:21;;;;;;;5.90;3.67;;;;;;;24.38;85.70;101250.63;6245845;28;20037;-85
2022/05/18 09:23:48;;;;;;;4.22;3.30;;;;;;;24.38;80.74;101243.50;6233302;28;20025;-85
2022/05/18 09:27:12;;;;;;;4.60;3.47;;;;;;;24.31;83.26;101236.53;6242550;28;20548;-85
2022/05/18 09:30:40;;;;;;;5.25;3.65;;;;;;;24.39;83.00;101237.19;6250620;28;20387;-85
2022/05/18 09:34:16;;;;;;;6.18;3.35;;;;;;;24.42;80.66;101238.63;6254745;28;20052;-85
2022/05/18 09:37:33;;;;;;;5.95;3.45;;;;;;;24.06;82.04;101240.44;6255832;28;20117;-85
2022/05/18 09:40:45;;;;;;;6.85;3.42;;;;;;;24.10;81.20;101237.41;6244689;28;20041;-85
2022/05/18 09:44:07;;;;;;;3.40;2.97;;;;;;;24.43;81.59;101238.44;6235275;28;20103;-85
2022/05/18 09:47:20;;;;;;;6.10;3.08;;;;;;;24.67;77.23;101239.00;6253203;28;20743;-84
2022/05/18 09:50:22;;;;;;;5.97;3.03;;;;;;;24.73;75.67;101242.69;6234538;28;20522;-85
2022/05/18 09:53:26;;;;;;;4.32;3.00;;;;;;;24.84;72.17;101245.56;6259767;28;20052;-85
2022/05/18 09:56:51;;;;;;;3.88;2.75;;;;;;;24.71;75.35;101240.25;6256442;28;20479;-85
2022/05/18 09:59:58;;;;;;;4.65;3.13;;;;;;;24.60;74.23;101241.63;6249048;28;20159;-86
2022/05/18 10:09:48;;;;;;;4.18;2.95;;;;;;;25.14;76.64;101234.66;6257577;28;20044;-85
2022/05/18 10:12:53;;;;;;;3.75;3.10;;;;;;;25.33;73.72;101244.53;6258102;28;20581;-85
2022/05/18 10:16:20;;;;;;;4.80;3.03;;;;;;;25.39;67.74;101240.28;6254064;28;20505;-85
2022/05/18 10:19:48;;;;;;;3.88;2.90;;;;;;;25.47;72.80;101240.09;6252499;28;20041;-85
2022/05/18 10:22:56;;;;;;;3.75;2.78;;;;;;;25.13;69.85;101239.16;6256642;28;20553;-85
2022/05/18 10:25:58;;;;;;;6.28;3.67;;;;;;;25.34;72.47;101250.66;6254198;28;20049;-86
2022/05/18 10:29:11;;;;;;;6.22;3.45;;;;;;;25.76;70.85;101243.34;6256208;28;20966;-86
2022/05/18 10:32:27;;;;;;;5.40;3.03;;;;;;;26.21;64.66;101244.38;6258920;28;20502;-85
2022/05/18 10:35:53;;;;;;;3.55;2.90;;;;;;;26.64;61.41;101240.41;6254557;28;20044;-86
2022/05/18 10:39:00;;;;;;;5.43;3.20;;;;;;;26.92;63.27;101234.75;6252190;28;20037;-86
2022/05/18 10:42:20;;;;;;;4.68;3.15;;;;;;;26.96;54.32;101235.16;6225049;28;20045;-86
2022/05/18 10:45:25;;;;;;;;;;;;;;;26.98;58.40;101235.75;6250889;28;20053;-85
2022/05/18 10:48:30;;;;;;;5.32;3.40;;;;;;;27.09;58.23;101237.75;6252815;28;19924;-86
2022/05/18 10:51:45;;;;;;;5.18;3.53;;;;;;;27.03;58.91;101227.94;6256987;28;20541;-86
2022/05/18 10:54:59;;;;;;;5.45;3.33;;;;;;;26.85;56.49;101236.63;6238487;28;20045;-85
2022/05/18 10:58:21;;;;;;;4.80;3.03;;;;;;;26.88;55.81;101225.56;6239492;28;20045;-87
2022/05/18 11:01:34;;;;;;;5.80;2.95;;;;;;;27.06;54.17;101223.03;6246481;28;20044;-86
2022/05/18 11:04:55;;;;;;;5.15;2.83;;;;;;;27.14;52.22;101221.97;6253914;28;20099;-86
2022/05/18 11:07:57;;;;;;;3.72;2.90;;;;;;;27.18;50.47;101223.22;6247003;28;20501;-86
2022/05/18 11:11:06;;;;;;;6.65;2.97;;;;;;;27.33;57.98;101222.91;6239605;28;20580;-86
2022/05/18 11:14:20;;;;;;;4.45;2.80;;;;;;;27.44;52.29;101221.38;6245195;28;20562;-83
2022/05/18 11:17:54;;;;;;;4.90;2.80;;;;;;;27.40;51.08;101221.03;6256772;28;20681;-83
2022/05/18 11:21:34;;;;;;;5.95;2.58;;;;;;;27.40;50.55;101206.88;6265116;28;20048;-84
2022/05/18 11:25:00;;;;;;;2.95;2.63;;;;;;;27.37;50.27;101207.31;6256587;28;20048;-83
2022/05/18 11:28:59;;;;;;;4.28;3.08;;;;;;;27.39;53.23;101200.75;6259248;28;20033;-84
2022/05/18 11:32:14;;;;;;;4.20;3.25;;;;;;;27.52;52.79;101204.34;6248865;28;20663;-84
2022/05/18 11:35:26;;;;;;;3.10;2.80;;;;;;;27.69;49.45;101200.91;6261958;28;20052;-83
2022/05/18 11:38:55;;;;;;;4.13;2.75;;;;;;;27.83;50.24;101198.19;6260048;28;20097;-84
2022/05/18 11:42:09;;;;;;;3.90;2.88;;;;;;;27.99;47.31;101194.94;6258424;28;20099;-84
2022/05/18 11:45:42;;;;;;;3.63;2.70;;;;;;;28.14;50.81;101189.25;6266598;28;20226;-84
2022/05/18 11:48:54;;;;;;;5.22;2.92;;;;;;;28.32;57.33;101185.75;6263395;28;20041;-83
2022/05/18 11:52:32;;;;;;;4.00;3.03;;;;;;;28.58;49.84;101178.53;6255175;28;20067;-83
2022/05/18 11:56:11;;;;;;;4.50;2.53;;;;;;;28.76;47.98;101181.16;6241760;28;20041;-86
2022/05/18 12:00:03;;;;;;;3.20;2.55;;;;;;;28.74;47.84;101177.91;6255476;28;20041;-86
2022/05/18 12:03:33;;;;;;;;;;;;;;;28.91;47.86;101178.88;6256034;28;20143;-86
2022/05/18 12:07:23;;;;;;;3.25;2.60;;;;;;;29.16;45.97;101188.59;6257196;28;19924;-86
2022/05/18 12:10:32;;;;;;;4.00;2.30;;;;;;;29.55;43.23;101178.34;6200672;28;20751;-86
2022/05/18 12:13:55;;;;;;;2.90;2.65;;;;;;;29.88;44.57;101187.63;6194818;28;20423;-82
2022/05/18 12:17:14;;;;;;;3.55;2.50;;;;;;;30.21;45.09;101171.81;6192069;28;20195;-83
2022/05/18 12:20:31;;;;;;;4.90;2.47;;;;;;;30.44;45.77;101168.28;6194867;28;20558;-82
2022/05/18 12:23:39;;;;;;;3.58;2.45;;;;;;;30.30;39.41;101174.13;6206056;28;20064;-82
2022/05/18 12:26:43;;;;;;;3.63;2.60;;;;;;;29.78;46.20;101181.03;6202039;28;20061;-82
2022/05/18 12:29:48;;;;;;;2.80;2.35;;;;;;;29.48;44.90;101177.63;6195752;28;20186;-82
2022/05/18 12:32:53;;;;;;;4.43;2.80;;;;;;;29.73;44.37;101177.44;6200434;28;20054;-83
2022/05/18 12:36:00;;;;;;;6.82;2.60;;;;;;;30.58;44.37;101178.69;6191114;28;20211;-82
2022/05/18 12:39:18;;;;;;;3.40;2.55;;;;;;;31.30;42.57;101176.22;6196753;28;20050;-83
2022/05/18 12:42:29;;;;;;;4.78;2.28;;;;;;;31.23;39.44;101172.06;6198733;28;20171;-82
2022/05/18 12:45:44;;;;;;;4.00;2.38;;;;;;;31.24;40.29;101181.75;6216837;28;20053;-82
2022/05/18 12:48:52;;;;;;;2.95;2.60;;;;;;;31.15;42.28;101180.50;6247196;28;20029;-82
2022/05/18 12:51:59;;;;;;;3.65;2.53;;;;;;;30.56;43.60;101181.59;6237478;28;20057;-82
2022/05/18 12:55:17;;;;;;;3.97;2.55;;;;;;;29.86;40.34;101179.06;6252046;28;20397;-83
2022/05/18 12:58:43;;;;;;;2.83;2.28;;;;;;;29.57;46.49;101168.25;6251492;28;20052;-83
2022/05/18 13:01:51;;;;;;;4.05;2.50;;;;;;;29.95;43.60;101177.66;6264945;28;20041;-83
2022/05/18 13:04:57;;;;;;;3.67;2.58;;;;;;;30.33;41.10;101171.78;6269323;28;20063;-83
2022/05/18 13:08:17;;;;;;;4.13;2.88;;;;;;;30.53;42.01;101171.38;6245140;28;20040;-82
2022/05/18 13:11:20;;;;;;;3.95;2.70;;;;;;;30.16;43.92;101169.03;6251195;28;20036;-83
2022/05/18 13:14:35;;;;;;;5.65;2.40;;;;;;;30.22;44.30;101165.41;6259951;28;20332;-83
2022/05/18 13:17:47;;;;;;;6.47;2.70;;;;;;;31.03;42.39;101157.34;6259703;28;20498;-83
2022/05/18 13:21:07;;;;;;;4.50;2.35;;;;;;;31.92;40.02;101161.88;6254685;28;20514;-83
2022/05/18 13:24:13;;;;;;;4.30;2.90;;;;;;;32.06;42.47;101164.22;6253499;28;20408;-83
2022/05/18 13:27:19;;;;;;;3.25;2.17;;;;;;;31.86;40.14;101162.06;6252876;28;20044;-83
2022/05/18 13:30:52;;;;;;;3.70;2.35;;;;;;;31.80;42.06;101158.50;6251172;28;20182;-84
2022/05/18 13:34:22;;;;;;;3.10;2.42;;;;;;;32.27;40.26;101158.03;6253949;28;20049;-83
2022/05/18 13:37:26;;;;;;;2.85;2.33;;;;;;;32.48;40.99;101144.88;6250985;28;20474;-83
2022/05/18 13:40:54;;;;;;;2.90;2.60;;;;;;;32.82;41.94;101150.88;6246506;28;20033;-84
2022/05/18 13:43:59;;;;;;;2.35;2.15;;;;;;;33.16;40.63;101154.09;6245699;28;20065;-84
2022/05/18 13:47:01;;;;;;;4.95;2.28;;;;;;;33.24;37.17;101153.66;6250880;28;20111;-84
2022/05/18 13:50:08;;;;;;;2.95;2.30;;;;;;;33.20;36.68;101143.69;6265045;28;20387;-90
2022/05/18 13:53:19;;;;;;;3.50;2.60;;;;;;;33.21;35.70;101145.28;6231114;28;20045;-91
2022/05/18 13:56:33;;;;;;;2.33;1.90;;;;;;;33.20;37.56;101138.31;6223945;28;20080;-91
2022/05/18 13:59:44;;;;;;;6.20;2.80;;;;;;;33.26;35.45;101137.25;6264178;28;20041;-91
2022/05/18 14:02:54;;;;;;;4.78;2.78;;;;;;;33.39;38.78;101136.00;6258196;28;20043;-92
2022/05/18 14:06:21;;;;;;;3.88;2.30;;;;;;;33.73;38.49;101135.69;6253337;28;20041;-92
2022/05/18 14:09:44;;;;;;;3.70;2.55;;;;;;;33.91;36.01;101139.78;6258929;28;20048;-92
2022/05/18 14:12:48;;;;;;;3.00;2.47;;;;;;;33.68;37.56;101142.66;6255426;28;20491;-92
2022/05/18 14:15:52;;;;;;;5.30;2.50;;;;;;;33.38;40.68;101135.19;6232141;28;20507;-92
2022/05/18 14:18:57;;;;;;;4.43;2.58;;;;;;;32.97;37.75;101139.44;6248234;28;20037;-91
2022/05/18 14:22:02;;;;;;;10.77;2.78;;;;;;;32.28;37.92;101126.69;6237447;28;20029;-91
2022/05/18 14:25:15;;;;;;;4.38;2.50;;;;;;;32.44;37.04;101130.34;6235449;28;20040;-91
2022/05/18 14:28:29;;;;;;;2.38;2.10;;;;;;;32.44;39.65;101130.34;6247052;28;20052;-92
2022/05/18 14:31:38;;;;;;;5.15;2.53;;;;;;;32.88;37.79;101127.56;6241875;28;20049;-92
2022/05/18 14:34:45;;;;;;;3.78;2.30;;;;;;;33.09;32.56;101125.88;6232859;28;20048;-91
2022/05/18 14:37:55;;;;;;;5.75;2.25;;;;;;;32.76;34.71;101123.16;6226418;28;20046;-91
2022/05/18 14:41:04;;;;;;;3.65;2.30;;;;;;;32.72;37.51;101118.56;6243645;28;20052;-90